• Join FlightAware (Why Join?)
  • Login
  • US Flag 
01:36AM EDT


 

Airport Tracker/Info


-or-


 

Live Flight TrackerFlight Track Log ✈ EJM880 ✈ 14-Jul-2013 ✈ KEGE - KMSP

Flight Track Log - Related Links

Times and Time Zones

All times are in EDT time to prevent confusion due to time zone crossing. See the EJM880 flight status page for this flight to view local times or setup timezone preferences in your user account.

Time Position Orientation Groundspeed Altitude Reporting Facility
EDT Latitude Longitude Course Direction KTS MPH feet Rate Location/Type
12:33PM 39.6300 -106.9531 75° East 238 274 7,100  Level Denver Center
12:34PM 39.5950 -107.0100 231° Southwest 226 260 10,400 2,940 Climbing Denver Center
12:35PM 39.6406 -107.0547 323° Northwest 240 276 13,200 2,760 Climbing Denver Center
12:36PM 39.7189 -107.0764 348° North 247 284 16,200 2,640 Climbing Denver Center
12:37PM 39.7633 -107.0039 51° Northeast 272 313 18,700 2,160 Climbing Denver Center
12:38PM 40.1291 -105.7800 79° East  Level FlightAware Approximate
12:38PM 39.7867 -106.9089 72° East 279 321 20,700  Level Denver Center
12:39PM 40.1546 -105.6435 75° East  Level FlightAware Approximate
12:39PM 39.8094 -106.8058 74° East 295 339 22,300  Level Denver Center
12:40PM 39.8353 -106.6897 74° East 328 377 23,700 1,320 Climbing Denver Center
12:42PM 39.8633 -106.5647 74° East 354 407 25,100 1,380 Climbing Denver Center
12:43PM 39.8939 -106.4258 74° East 376 433 26,600 1,320 Climbing Denver Center
12:44PM 39.9253 -106.2878 73° East 394 453 27,900 1,380 Climbing Denver Center
12:45PM 39.9636 -106.1164 74° East 411 473 29,500 1,320 Climbing Denver Center
12:46PM 40.0028 -105.9408 74° East 421 484 31,000 1,200 Climbing Denver Center
12:47PM 40.0342 -105.7886 75° East 443 510 32,300 1,200 Climbing Denver Center
12:48PM 40.0678 -105.6367 74° East 437 503 33,600 1,200 Climbing Denver Center
12:49PM 40.1003 -105.4842 74° East 436 502 34,800 1,440 Climbing Denver Center
12:50PM 40.1300 -105.3344 75° East 426 490 36,600 1,560 Climbing Denver Center
12:51PM 40.1681 -105.1589 74° East 417 480 38,100 1,260 Climbing Denver Center
12:52PM 40.2000 -105.0103 74° East 421 484 39,300 1,080 Climbing Denver Center
12:53PM 40.2300 -104.8639 75° East 417 480 40,400 780 Climbing Denver Center
12:54PM 40.2600 -104.7167 75° East 419 482 41,000 240 Climbing Denver Center
12:55PM 40.2908 -104.5636 75° East 431 496 41,000  Level Denver Center
12:56PM 40.3228 -104.4067 75° East 442 509 41,000  Level Denver Center
12:57PM 40.3544 -104.2494 75° East 443 510 41,000  Level Denver Center
12:58PM 40.3922 -104.0608 75° East 444 511 41,000  Level Denver Center
12:59PM 40.4233 -103.9039 75° East 442 509 41,000  Level Denver Center
01:00PM 40.4544 -103.7489 75° East 438 504 41,000  Level Denver Center
01:01PM 40.4839 -103.5950 76° East 438 504 41,100 600 Climbing Denver Center
01:03PM 40.5084 -103.4437 78° East  Level FlightAware Approximate
01:03PM 40.5425 -103.2936 78° East 421 484 43,000  Level Denver Center
01:04PM 40.5764 -103.1147 76° East 422 486 43,000  Level Denver Center
01:06PM 40.6036 -102.9733 76° East 402 463 43,000  Level Denver Center
01:07PM 40.6297 -102.8361 76° East 389 448 43,000  Level Denver Center
01:08PM 40.6550 -102.6947 77° East 397 457 43,000  Level Denver Center
01:09PM 40.6836 -102.5436 76° East 404 465 43,000  Level Denver Center
01:10PM 40.7133 -102.3831 76° East 405 466 43,000  Level Denver Center
01:11PM 40.7394 -102.2447 76° East 406 467 43,000  Level Denver Center
01:12PM 40.7642 -102.1056 77° East 406 467 43,000  Level Denver Center
01:13PM 40.7933 -101.9439 77° East 405 466 43,000  Level Denver Center
01:14PM 40.8189 -101.8053 76° East 405 466 43,000  Level Denver Center
01:15PM 40.8464 -101.6447 77° East 401 461 43,000  Level Denver Center
01:16PM 40.8714 -101.5086 76° East 399 459 43,000  Level Denver Center
01:17PM 40.8986 -101.3478 77° East 400 460 43,000  Level Denver Center
01:18PM 40.9219 -101.2094 77° East 401 461 43,000  Level Denver Center
01:19PM 40.9519 -101.0472 76° East 405 466 43,000 -60 Level Denver Center
01:20PM 40.9775 -100.9039 77° East 411 473 42,900 -600 Descending Denver Center
01:21PM 41.0069 -100.7403 77° East 416 479 41,800 -960 Descending Denver Center
01:22PM 41.0286 -100.5953 79° East 402 463 41,000 60 Descending Denver Center
01:23PM 41.0500 -100.4631 78° East 385 443 42,000 960 Climbing Denver Center
01:24PM 41.0742 -100.3111 78° East 378 435 43,000 480 Climbing Denver Center
01:25PM 41.0969 -100.1769 77° East 385 443 43,000  Level Denver Center
01:26PM 41.1228 -100.0125 78° East 403 464 43,000  Level Denver Center
01:27PM 41.1450 -99.8708 78° East 409 471 43,000  Level Denver Center
01:28PM 41.1714 -99.7072 78° East 407 468 43,000  Level Denver Center
01:29PM 41.1933 -99.5647 78° East 409 471 43,000  Level Denver Center
01:30PM 41.2169 -99.4181 78° East 409 471 43,000  Level Denver Center
01:31PM 41.2394 -99.2706 78° East 406 467 43,000  Level Denver Center
01:32PM 41.2764 -99.1292 71° East 400 460 43,000  Level Denver Center
01:33PM 41.3192 -98.9869 68° East 408 470 43,000  Level Denver Center
01:34PM 41.3708 -98.8175 68° East 405 466 43,000  Level Denver Center
01:36PM 41.4125 -98.6758 69° East 406 467 43,000  Level Denver Center
01:37PM 41.4536 -98.5344 69° East 406 467 43,000  Level Denver Center
01:38PM 41.4947 -98.3939 69° East 406 467 43,000  Level Denver Center
01:39PM 41.5536 -98.1967 68° East 409 471 43,000  Level Minneapolis Center
01:40PM 41.5953 -98.0533 69° East 407 468 43,000  Level Minneapolis Center
01:41PM 41.6361 -97.9128 69° East 406 467 43,000  Level Minneapolis Center
01:42PM 41.6767 -97.7714 69° East 407 468 43,000  Level Minneapolis Center
01:43PM 41.7175 -97.6311 69° East 405 466 43,000  Level Minneapolis Center
01:44PM 41.7572 -97.4908 69° East 403 464 43,000  Level Minneapolis Center
01:45PM 41.7969 -97.3519 69° East 401 461 43,000  Level Minneapolis Center
01:46PM 41.8447 -97.1853 69° East 399 459 43,000  Level Minneapolis Center
01:47PM 41.8836 -97.0447 70° East 401 461 43,000  Level Minneapolis Center
01:48PM 41.9225 -96.9036 70° East 402 463 43,000  Level Minneapolis Center
01:49PM 41.9628 -96.7628 69° East 402 463 43,000  Level Minneapolis Center
01:50PM 42.0006 -96.6211 70° East 402 463 43,000  Level Minneapolis Center
01:51PM 42.0403 -96.4789 69° East 404 465 43,000  Level Minneapolis Center
01:52PM 42.0783 -96.3369 70° East 403 464 43,000  Level Minneapolis Center
01:53PM 42.1172 -96.1947 70° East 405 466 43,000  Level Minneapolis Center
01:54PM 42.1636 -96.0228 70° East 407 468 43,000 -120 Level Minneapolis Center
01:56PM 42.2022 -95.8781 70° East 409 471 42,800 -600 Descending Minneapolis Center
01:57PM 42.2394 -95.7381 70° East 399 459 41,800 -1,020 Descending Minneapolis Center
01:58PM 42.2761 -95.5994 70° East 392 451 40,800 -1,020 Descending Minneapolis Center
01:59PM 42.3125 -95.4600 71° East 393 452 39,800 -1,020 Descending Minneapolis Center
02:00PM 42.3503 -95.3156 70° East 403 464 38,800 -1,080 Descending Minneapolis Center
02:01PM 42.3958 -95.1417 70° East 407 468 37,600 -1,080 Descending Minneapolis Center
02:02PM 42.4336 -94.9964 71° East 408 470 36,600 -1,020 Descending Minneapolis Center
02:03PM 42.4711 -94.8519 71° East 407 468 35,600 -1,020 Descending Minneapolis Center
02:04PM 42.5069 -94.7083 71° East 404 465 34,600 -960 Descending Minneapolis Center
02:05PM 42.5419 -94.5661 71° East 410 472 33,700 -780 Descending Minneapolis Center
02:06PM 42.5878 -94.3836 71° East 428 493 33,000 -360 Descending Minneapolis Center
02:07PM 42.6528 -94.2467 57° Northeast 442 509 33,000  Level Minneapolis Center
02:08PM 42.7500 -94.1406 39° Northeast 452 520 33,000  Level Minneapolis Center
02:09PM 42.8281 -94.0561 38° Northeast 451 519 33,000  Level Minneapolis Center
02:10PM 42.9458 -93.9261 39° Northeast 457 526 33,000 -1,080 Level Minneapolis Center
02:11PM 43.0636 -93.7961 39° Northeast 458 527 30,800 -1,860 Descending Minneapolis Center
02:12PM 43.1625 -93.6867 39° Northeast 460 529 29,200 -1,500 Descending Minneapolis Center
02:13PM 43.2606 -93.5786 39° Northeast 456 525 27,800 -1,440 Descending Minneapolis Center
02:14PM 43.3839 -93.5444 11° North 461 531 26,300 -1,380 Descending Minneapolis Center
02:15PM 43.5153 -93.5328 North 473 544 25,000 -1,260 Descending Minneapolis Center
02:16PM 43.6686 -93.5161 North 477 549 23,700 -2,040 Descending Minneapolis Center
02:17PM 43.7950 -93.5044 North 462 532 20,900 -2,820 Descending Minneapolis Center
02:18PM 43.9200 -93.4931 North 452 520 17,900 -2,640 Descending Minneapolis Center
02:19PM 44.0375 -93.4817 North 432 497 15,400 -2,340 Descending Minneapolis Center
02:21PM 44.1489 -93.4711 North 406 467 12,600 -1,980 Descending Minneapolis Center
02:22PM 44.2931 -93.4203 14° North 369 425 11,000 -780 Descending Minneapolis Center
02:23PM 44.3889 -93.3542 26° Northeast 385 443 11,000  Level Minneapolis Center
02:24PM 44.4867 -93.2853 27° Northeast 396 456 11,000 -120 Level Minneapolis Center
02:25PM 44.5831 -93.2169 27° Northeast 393 452 10,800 -1,080 Descending Minneapolis Center
02:26PM 44.6703 -93.2033 North 336 387 8,800 -1,380 Descending Minneapolis Center
02:27PM 44.7528 -93.2586 335° Northwest 313 360 8,000 -420 Descending Minneapolis Center
02:28PM 44.8214 -93.3106 332° Northwest 276 318 8,000 -960 Level Minneapolis Center
02:29PM 44.8725 -93.4139 305° West 270 311 6,100 -1,500 Descending Minneapolis Center
02:30PM 44.9058 -93.4722 309° West 240 276 5,000 -780 Descending Minneapolis Center
02:31PM 44.9344 -93.4089 57° Northeast 188 216 4,600 -780 Descending Minneapolis Center
02:32PM 44.9233 -93.3367 102° East 185 213 3,400 -1,320 Descending Minneapolis Center
02:33PM 44.9064 -93.2781 112° Southeast 157 181 1,900 -1,500 Descending Minneapolis Center
02:35PM 44.8820 -93.2218 96° East  Level Estimated
02:42PM 44.8820 -93.2218 96° East  Level Estimated